sensor_id;sensor_type;location;lat;lon;timestamp;pressure;altitude;pressure_sealevel;temperature;humidity
50322;BME280;36227;53.366;-1.426;2022-07-29T00:00:01;75279.44;;;-218.48;89.98
50322;BME280;36227;53.366;-1.426;2022-07-29T00:02:28;75336.41;;;-218.75;92.72
50322;BME280;36227;53.366;-1.426;2022-07-29T00:04:56;75331.99;;;-218.26;92.06
50322;BME280;36227;53.366;-1.426;2022-07-29T00:07:23;75266.55;;;-218.26;89.90
50322;BME280;36227;53.366;-1.426;2022-07-29T00:09:50;75293.33;;;-218.04;91.09
50322;BME280;36227;53.366;-1.426;2022-07-29T00:12:18;75312.15;;;-218.04;92.33
50322;BME280;36227;53.366;-1.426;2022-07-29T00:14:45;75398.94;;;-218.04;94.64
50322;BME280;36227;53.366;-1.426;2022-07-29T00:17:12;75261.00;;;-218.26;90.58
50322;BME280;36227;53.366;-1.426;2022-07-29T00:19:39;75231.31;;;-218.75;89.01
50322;BME280;36227;53.366;-1.426;2022-07-29T00:22:06;75352.58;;;-218.48;92.37
50322;BME280;36227;53.366;-1.426;2022-07-29T00:24:33;75319.35;;;-218.26;93.18
50322;BME280;36227;53.366;-1.426;2022-07-29T00:27:00;75340.70;;;-218.26;95.09
50322;BME280;36227;53.366;-1.426;2022-07-29T00:29:27;75308.37;;;-217.77;92.90
50322;BME280;36227;53.366;-1.426;2022-07-29T00:31:54;75285.50;;;-218.04;92.33
50322;BME280;36227;53.366;-1.426;2022-07-29T00:34:21;75332.11;;;-218.04;94.41
50322;BME280;36227;53.366;-1.426;2022-07-29T00:36:48;75361.67;;;-218.04;96.09
50322;BME280;36227;53.366;-1.426;2022-07-29T00:39:15;75284.74;;;-218.75;93.14
50322;BME280;36227;53.366;-1.426;2022-07-29T00:41:42;75298.76;;;-218.48;93.81
50322;BME280;36227;53.366;-1.426;2022-07-29T00:44:09;75310.89;;;-218.04;94.26
50322;BME280;36227;53.366;-1.426;2022-07-29T00:46:36;75290.30;;;-218.26;93.94
50322;BME280;36227;53.366;-1.426;2022-07-29T00:49:03;75303.57;;;-218.04;93.01
50322;BME280;36227;53.366;-1.426;2022-07-29T00:51:30;75353.97;;;-217.77;97.17
50322;BME280;36227;53.366;-1.426;2022-07-29T00:53:58;75381.63;;;-217.77;97.52
50322;BME280;36227;53.366;-1.426;2022-07-29T00:56:25;75356.24;;;-217.77;97.64
50322;BME280;36227;53.366;-1.426;2022-07-29T00:58:53;75317.33;;;-218.75;97.07
50322;BME280;36227;53.366;-1.426;2022-07-29T01:01:20;75337.42;;;-218.04;96.94
50322;BME280;36227;53.366;-1.426;2022-07-29T01:03:47;75370.64;;;-218.04;100.00
50322;BME280;36227;53.366;-1.426;2022-07-29T01:06:15;75447.70;;;-217.77;100.00
50322;BME280;36227;53.366;-1.426;2022-07-29T01:08:42;75327.57;;;-218.04;99.41
50322;BME280;36227;53.366;-1.426;2022-07-29T01:11:10;75360.91;;;-217.77;99.53
50322;BME280;36227;53.366;-1.426;2022-07-29T01:13:37;75292.58;;;-218.04;98.68
50322;BME280;36227;53.366;-1.426;2022-07-29T01:16:11;75431.65;;;-218.26;100.00
50322;BME280;36227;53.366;-1.426;2022-07-29T01:18:44;75331.36;;;-218.26;100.00
50322;BME280;36227;53.366;-1.426;2022-07-29T01:21:26;75407.65;;;-218.04;100.00
50322;BME280;36227;53.366;-1.426;2022-07-29T01:24:11;75321.50;;;-218.04;100.00
50322;BME280;36227;53.366;-1.426;2022-07-29T01:26:47;75329.21;;;-218.26;100.00
50322;BME280;36227;53.366;-1.426;2022-07-29T01:29:22;75344.37;;;-218.26;100.00
50322;BME280;36227;53.366;-1.426;2022-07-29T01:31:58;75335.90;;;-217.77;100.00
50322;BME280;36227;53.366;-1.426;2022-07-29T01:34:35;75448.71;;;-218.26;100.00
50322;BME280;36227;53.366;-1.426;2022-07-29T01:37:15;75360.54;;;-218.04;100.00
50322;BME280;36227;53.366;-1.426;2022-07-29T01:39:46;75411.82;;;-218.04;100.00
50322;BME280;36227;53.366;-1.426;2022-07-29T01:42:18;75437.47;;;-218.04;100.00
50322;BME280;36227;53.366;-1.426;2022-07-29T01:44:53;75384.79;;;-217.77;100.00
50322;BME280;36227;53.366;-1.426;2022-07-29T01:47:26;75335.90;;;-218.26;100.00
50322;BME280;36227;53.366;-1.426;2022-07-29T01:49:58;75405.88;;;-218.04;100.00
50322;BME280;36227;53.366;-1.426;2022-07-29T01:52:34;75467.91;;;-218.04;100.00
50322;BME280;36227;53.366;-1.426;2022-07-29T01:55:09;75378.22;;;-217.77;100.00
50322;BME280;36227;53.366;-1.426;2022-07-29T01:57:39;75371.15;;;-218.26;100.00
50322;BME280;36227;53.366;-1.426;2022-07-29T02:00:11;75411.06;;;-217.77;100.00
50322;BME280;36227;53.366;-1.426;2022-07-29T02:02:41;75420.03;;;-218.04;100.00
50322;BME280;36227;53.366;-1.426;2022-07-29T02:05:12;75340.58;;;-218.26;100.00
50322;BME280;36227;53.366;-1.426;2022-07-29T02:07:43;75379.74;;;-218.04;100.00
50322;BME280;36227;53.366;-1.426;2022-07-29T02:10:12;75381.38;;;-218.26;100.00
50322;BME280;36227;53.366;-1.426;2022-07-29T02:12:40;75433.30;;;-218.48;100.00
50322;BME280;36227;53.366;-1.426;2022-07-29T02:15:10;75402.85;;;-218.26;100.00
50322;BME280;36227;53.366;-1.426;2022-07-29T02:17:41;75378.47;;;-218.04;100.00
50322;BME280;36227;53.366;-1.426;2022-07-29T02:20:10;75532.84;;;-217.77;100.00
50322;BME280;36227;53.366;-1.426;2022-07-29T02:22:39;75507.57;;;-217.77;100.00
50322;BME280;36227;53.366;-1.426;2022-07-29T02:25:08;75435.06;;;-217.77;100.00
50322;BME280;36227;53.366;-1.426;2022-07-29T02:27:37;75426.73;;;-218.75;100.00
50322;BME280;36227;53.366;-1.426;2022-07-29T02:30:07;75544.97;;;-217.77;100.00
50322;BME280;36227;53.366;-1.426;2022-07-29T02:32:37;75517.55;;;-217.77;100.00
50322;BME280;36227;53.366;-1.426;2022-07-29T02:35:07;75469.17;;;-218.04;100.00
50322;BME280;36227;53.366;-1.426;2022-07-29T02:37:36;75490.90;;;-217.77;100.00
50322;BME280;36227;53.366;-1.426;2022-07-29T02:40:08;75516.04;;;-217.55;100.00
50322;BME280;36227;53.366;-1.426;2022-07-29T02:42:36;75469.68;;;-218.48;100.00
50322;BME280;36227;53.366;-1.426;2022-07-29T02:45:05;75406.90;;;-218.04;100.00
50322;BME280;36227;53.366;-1.426;2022-07-29T02:47:36;75411.19;;;-218.04;100.00
50322;BME280;36227;53.366;-1.426;2022-07-29T02:50:11;75398.05;;;-217.77;100.00
50322;BME280;36227;53.366;-1.426;2022-07-29T02:52:47;75368.75;;;-218.04;100.00
50322;BME280;36227;53.366;-1.426;2022-07-29T02:55:25;75338.56;;;-218.75;100.00
50322;BME280;36227;53.366;-1.426;2022-07-29T02:57:58;75329.08;;;-218.26;100.00
50322;BME280;36227;53.366;-1.426;2022-07-29T03:00:28;75410.31;;;-218.04;100.00
50322;BME280;36227;53.366;-1.426;2022-07-29T03:02:59;75514.02;;;-218.04;100.00
50322;BME280;36227;53.366;-1.426;2022-07-29T03:05:28;75404.75;;;-218.04;100.00
50322;BME280;36227;53.366;-1.426;2022-07-29T03:07:58;75387.32;;;-218.75;100.00
50322;BME280;36227;53.366;-1.426;2022-07-29T03:10:29;75457.55;;;-217.77;100.00
50322;BME280;36227;53.366;-1.426;2022-07-29T03:12:57;75438.73;;;-217.77;100.00
50322;BME280;36227;53.366;-1.426;2022-07-29T03:15:25;75431.40;;;-217.77;100.00
50322;BME280;36227;53.366;-1.426;2022-07-29T03:17:53;75459.45;;;-217.55;100.00
50322;BME280;36227;53.366;-1.426;2022-07-29T03:20:20;75452.50;;;-217.77;100.00
50322;BME280;36227;53.366;-1.426;2022-07-29T03:22:48;75484.46;;;-218.26;100.00
50322;BME280;36227;53.366;-1.426;2022-07-29T03:25:18;75532.08;;;-218.04;100.00
50322;BME280;36227;53.366;-1.426;2022-07-29T03:27:47;75473.97;;;-218.04;100.00
50322;BME280;36227;53.366;-1.426;2022-07-29T03:30:15;75527.41;;;-218.04;100.00
50322;BME280;36227;53.366;-1.426;2022-07-29T03:32:42;75466.14;;;-218.04;100.00
50322;BME280;36227;53.366;-1.426;2022-07-29T03:35:09;75443.65;;;-217.77;100.00
50322;BME280;36227;53.366;-1.426;2022-07-29T03:37:36;75486.86;;;-217.77;100.00
50322;BME280;36227;53.366;-1.426;2022-07-29T03:40:07;75535.24;;;-217.77;100.00
50322;BME280;36227;53.366;-1.426;2022-07-29T03:42:36;75484.58;;;-218.26;100.00
50322;BME280;36227;53.366;-1.426;2022-07-29T03:45:09;75427.74;;;-218.26;100.00
50322;BME280;36227;53.366;-1.426;2022-07-29T03:47:40;75493.30;;;-217.77;100.00
50322;BME280;36227;53.366;-1.426;2022-07-29T03:50:14;75435.70;;;-218.26;100.00
50322;BME280;36227;53.366;-1.426;2022-07-29T03:52:42;75495.20;;;-217.77;100.00
50322;BME280;36227;53.366;-1.426;2022-07-29T03:55:09;75399.32;;;-218.75;100.00
50322;BME280;36227;53.366;-1.426;2022-07-29T03:57:38;75396.03;;;-218.26;100.00
50322;BME280;36227;53.366;-1.426;2022-07-29T04:00:08;75478.52;;;-218.04;100.00
50322;BME280;36227;53.366;-1.426;2022-07-29T04:02:36;75616.85;;;-217.77;100.00
50322;BME280;36227;53.366;-1.426;2022-07-29T04:05:05;75487.24;;;-218.04;100.00
50322;BME280;36227;53.366;-1.426;2022-07-29T04:07:38;75447.32;;;-217.77;100.00
50322;BME280;36227;53.366;-1.426;2022-07-29T04:10:06;75459.82;;;-218.75;100.00
50322;BME280;36227;53.366;-1.426;2022-07-29T04:12:34;75448.71;;;-218.04;100.00
50322;BME280;36227;53.366;-1.426;2022-07-29T04:15:01;75491.28;;;-217.77;100.00
50322;BME280;36227;53.366;-1.426;2022-07-29T04:17:28;75500.00;;;-218.04;100.00
50322;BME280;36227;53.366;-1.426;2022-07-29T04:19:55;75482.31;;;-217.77;100.00
50322;BME280;36227;53.366;-1.426;2022-07-29T04:22:22;75536.50;;;-217.77;100.00
50322;BME280;36227;53.366;-1.426;2022-07-29T04:24:49;75468.54;;;-217.77;100.00
50322;BME280;36227;53.366;-1.426;2022-07-29T04:27:16;75422.31;;;-217.77;100.00
50322;BME280;36227;53.366;-1.426;2022-07-29T04:29:43;75500.12;;;-218.75;100.00
50322;BME280;36227;53.366;-1.426;2022-07-29T04:32:10;75508.96;;;-218.04;100.00
50322;BME280;36227;53.366;-1.426;2022-07-29T04:34:37;75542.44;;;-217.77;100.00
50322;BME280;36227;53.366;-1.426;2022-07-29T04:37:04;75480.54;;;-217.77;100.00
50322;BME280;36227;53.366;-1.426;2022-07-29T04:39:31;75462.35;;;-217.77;100.00
50322;BME280;36227;53.366;-1.426;2022-07-29T04:41:58;75471.19;;;-218.04;100.00
50322;BME280;36227;53.366;-1.426;2022-07-29T04:44:25;75454.27;;;-217.77;100.00
50322;BME280;36227;53.366;-1.426;2022-07-29T04:46:52;75545.09;;;-217.55;100.00
50322;BME280;36227;53.366;-1.426;2022-07-29T04:49:19;75547.49;;;-218.26;100.00
50322;BME280;36227;53.366;-1.426;2022-07-29T04:51:47;75468.29;;;-218.04;100.00
50322;BME280;36227;53.366;-1.426;2022-07-29T04:54:13;75536.63;;;-217.77;100.00
50322;BME280;36227;53.366;-1.426;2022-07-29T04:56:40;75582.36;;;-217.77;100.00
50322;BME280;36227;53.366;-1.426;2022-07-29T04:59:07;75640.60;;;-217.77;100.00
50322;BME280;36227;53.366;-1.426;2022-07-29T05:01:34;75510.86;;;-217.77;100.00
50322;BME280;36227;53.366;-1.426;2022-07-29T05:04:01;75416.50;;;-218.04;100.00
50322;BME280;36227;53.366;-1.426;2022-07-29T05:06:28;75515.79;;;-218.04;100.00
50322;BME280;36227;53.366;-1.426;2022-07-29T05:08:56;75552.55;;;-218.48;100.00
50322;BME280;36227;53.366;-1.426;2022-07-29T05:11:23;75505.17;;;-218.26;100.00
50322;BME280;36227;53.366;-1.426;2022-07-29T05:13:50;75576.17;;;-218.04;100.00
50322;BME280;36227;53.366;-1.426;2022-07-29T05:16:17;75557.35;;;-218.04;100.00
50322;BME280;36227;53.366;-1.426;2022-07-29T05:18:44;75485.47;;;-218.04;100.00
50322;BME280;36227;53.366;-1.426;2022-07-29T05:21:11;75406.01;;;-218.26;100.00
50322;BME280;36227;53.366;-1.426;2022-07-29T05:23:38;75426.85;;;-218.26;100.00
50322;BME280;36227;53.366;-1.426;2022-07-29T05:26:05;75406.52;;;-218.04;100.00
50322;BME280;36227;53.366;-1.426;2022-07-29T05:28:33;75431.91;;;-218.75;100.00
50322;BME280;36227;53.366;-1.426;2022-07-29T05:31:00;75412.83;;;-218.48;100.00
50322;BME280;36227;53.366;-1.426;2022-07-29T05:33:27;75426.48;;;-218.26;100.00
50322;BME280;36227;53.366;-1.426;2022-07-29T05:35:54;75449.97;;;-217.77;100.00
50322;BME280;36227;53.366;-1.426;2022-07-29T05:38:21;75416.87;;;-218.26;100.00
50322;BME280;36227;53.366;-1.426;2022-07-29T05:40:48;75368.11;;;-218.26;100.00
50322;BME280;36227;53.366;-1.426;2022-07-29T05:43:15;75338.93;;;-218.26;100.00
50322;BME280;36227;53.366;-1.426;2022-07-29T05:45:42;75315.31;;;-218.26;100.00
50322;BME280;36227;53.366;-1.426;2022-07-29T05:48:09;75328.20;;;-218.75;100.00
50322;BME280;36227;53.366;-1.426;2022-07-29T05:50:36;75324.91;;;-218.75;100.00
50322;BME280;36227;53.366;-1.426;2022-07-29T05:53:03;75338.93;;;-218.75;100.00
50322;BME280;36227;53.366;-1.426;2022-07-29T05:55:30;75437.84;;;-218.48;100.00
50322;BME280;36227;53.366;-1.426;2022-07-29T05:57:57;75319.10;;;-218.75;100.00
50322;BME280;36227;53.366;-1.426;2022-07-29T06:00:24;75325.04;;;-218.04;100.00
50322;BME280;36227;53.366;-1.426;2022-07-29T06:02:51;75365.21;;;-218.26;100.00
50322;BME280;36227;53.366;-1.426;2022-07-29T06:05:18;75341.59;;;-218.26;100.00
50322;BME280;36227;53.366;-1.426;2022-07-29T06:07:45;75453.26;;;-218.75;100.00
50322;BME280;36227;53.366;-1.426;2022-07-29T06:10:12;75437.09;;;-218.75;100.00
50322;BME280;36227;53.366;-1.426;2022-07-29T06:12:39;75509.72;;;-217.77;100.00
50322;BME280;36227;53.366;-1.426;2022-07-29T06:15:07;75469.80;;;-218.04;100.00
50322;BME280;36227;53.366;-1.426;2022-07-29T06:17:34;75449.47;;;-218.04;100.00
50322;BME280;36227;53.366;-1.426;2022-07-29T06:20:02;75436.08;;;-218.04;100.00
50322;BME280;36227;53.366;-1.426;2022-07-29T06:22:29;75447.32;;;-217.77;100.00
50322;BME280;36227;53.366;-1.426;2022-07-29T06:24:56;75474.35;;;-217.77;100.00
50322;BME280;36227;53.366;-1.426;2022-07-29T06:27:24;75463.49;;;-218.75;100.00
50322;BME280;36227;53.366;-1.426;2022-07-29T06:29:51;75475.99;;;-218.48;100.00
50322;BME280;36227;53.366;-1.426;2022-07-29T06:32:17;75494.06;;;-218.26;100.00
50322;BME280;36227;53.366;-1.426;2022-07-29T06:34:44;75432.29;;;-218.04;100.00
50322;BME280;36227;53.366;-1.426;2022-07-29T06:37:11;75389.97;;;-218.26;100.00
50322;BME280;36227;53.366;-1.426;2022-07-29T06:39:38;75453.38;;;-218.26;100.00
50322;BME280;36227;53.366;-1.426;2022-07-29T06:42:05;75440.37;;;-218.26;100.00
50322;BME280;36227;53.366;-1.426;2022-07-29T06:44:33;75441.63;;;-218.48;100.00
50322;BME280;36227;53.366;-1.426;2022-07-29T06:47:00;75411.57;;;-218.97;100.00
50322;BME280;36227;53.366;-1.426;2022-07-29T06:49:28;75437.59;;;-218.48;100.00
50322;BME280;36227;53.366;-1.426;2022-07-29T06:51:55;75396.41;;;-218.26;100.00
50322;BME280;36227;53.366;-1.426;2022-07-29T06:54:23;75440.62;;;-218.04;100.00
50322;BME280;36227;53.366;-1.426;2022-07-29T06:56:50;75469.17;;;-218.04;100.00
50322;BME280;36227;53.366;-1.426;2022-07-29T06:59:16;75523.37;;;-217.77;100.00
50322;BME280;36227;53.366;-1.426;2022-07-29T07:01:43;75543.33;;;-218.04;100.00
50322;BME280;36227;53.366;-1.426;2022-07-29T07:04:11;75499.87;;;-218.26;100.00
50322;BME280;36227;53.366;-1.426;2022-07-29T07:06:38;75433.68;;;-218.75;100.00
50322;BME280;36227;53.366;-1.426;2022-07-29T07:09:05;75448.96;;;-218.26;100.00
50322;BME280;36227;53.366;-1.426;2022-07-29T07:11:32;75483.57;;;-218.26;100.00
50322;BME280;36227;53.366;-1.426;2022-07-29T07:13:59;75473.97;;;-218.26;100.00
50322;BME280;36227;53.366;-1.426;2022-07-29T07:16:27;75467.53;;;-218.04;100.00
50322;BME280;36227;53.366;-1.426;2022-07-29T07:18:54;75504.54;;;-218.04;100.00
50322;BME280;36227;53.366;-1.426;2022-07-29T07:21:20;75370.39;;;-218.26;100.00
50322;BME280;36227;53.366;-1.426;2022-07-29T07:23:48;75422.43;;;-218.75;100.00
50322;BME280;36227;53.366;-1.426;2022-07-29T07:26:15;75415.99;;;-218.75;100.00
50322;BME280;36227;53.366;-1.426;2022-07-29T07:28:42;75370.77;;;-218.75;100.00
50322;BME280;36227;53.366;-1.426;2022-07-29T07:31:09;75294.47;;;-218.75;100.00
50322;BME280;36227;53.366;-1.426;2022-07-29T07:33:35;75394.01;;;-218.75;100.00
50322;BME280;36227;53.366;-1.426;2022-07-29T07:36:03;75351.95;;;-218.48;100.00
50322;BME280;36227;53.366;-1.426;2022-07-29T07:38:30;75338.56;;;-218.26;100.00
50322;BME280;36227;53.366;-1.426;2022-07-29T07:40:57;75275.78;;;-218.75;100.00
50322;BME280;36227;53.366;-1.426;2022-07-29T07:43:25;75280.07;;;-218.75;100.00
50322;BME280;36227;53.366;-1.426;2022-07-29T07:45:52;75438.10;;;-218.75;100.00
50322;BME280;36227;53.366;-1.426;2022-07-29T07:48:19;75459.32;;;-218.48;100.00
50322;BME280;36227;53.366;-1.426;2022-07-29T07:50:46;75422.05;;;-218.48;100.00
50322;BME280;36227;53.366;-1.426;2022-07-29T07:53:13;75345.00;;;-218.26;100.00
50322;BME280;36227;53.366;-1.426;2022-07-29T07:55:41;75467.40;;;-218.26;100.00
50322;BME280;36227;53.366;-1.426;2022-07-29T07:58:08;75431.15;;;-218.26;100.00
50322;BME280;36227;53.366;-1.426;2022-07-29T08:00:36;75448.33;;;-218.26;100.00
50322;BME280;36227;53.366;-1.426;2022-07-29T08:03:04;75325.67;;;-218.97;100.00
50322;BME280;36227;53.366;-1.426;2022-07-29T08:05:31;75324.66;;;-218.75;100.00
50322;BME280;36227;53.366;-1.426;2022-07-29T08:07:58;75410.43;;;-218.75;100.00
50322;BME280;36227;53.366;-1.426;2022-07-29T08:10:25;75352.70;;;-218.48;100.00
50322;BME280;36227;53.366;-1.426;2022-07-29T08:12:52;75345.76;;;-218.48;100.00
50322;BME280;36227;53.366;-1.426;2022-07-29T08:15:19;75365.34;;;-218.26;100.00
50322;BME280;36227;53.366;-1.426;2022-07-29T08:17:45;75393.38;;;-218.26;100.00
50322;BME280;36227;53.366;-1.426;2022-07-29T08:20:13;75339.44;;;-218.26;100.00
50322;BME280;36227;53.366;-1.426;2022-07-29T08:22:40;75283.35;;;-219.24;100.00
50322;BME280;36227;53.366;-1.426;2022-07-29T08:25:07;75307.73;;;-218.75;100.00
50322;BME280;36227;53.366;-1.426;2022-07-29T08:27:34;75325.42;;;-218.75;100.00
50322;BME280;36227;53.366;-1.426;2022-07-29T08:30:01;75355.10;;;-218.75;100.00
50322;BME280;36227;53.366;-1.426;2022-07-29T08:32:28;75246.85;;;-218.97;100.00
50322;BME280;36227;53.366;-1.426;2022-07-29T08:34:55;75292.32;;;-218.75;100.00
50322;BME280;36227;53.366;-1.426;2022-07-29T08:37:22;75210.72;;;-218.75;100.00
50322;BME280;36227;53.366;-1.426;2022-07-29T08:39:49;75226.26;;;-218.75;100.00
50322;BME280;36227;53.366;-1.426;2022-07-29T08:42:16;75220.32;;;-219.68;100.00
50322;BME280;36227;53.366;-1.426;2022-07-29T08:44:43;75322.77;;;-218.75;100.00
50322;BME280;36227;53.366;-1.426;2022-07-29T08:47:13;75326.56;;;-218.75;100.00
50322;BME280;36227;53.366;-1.426;2022-07-29T08:49:40;75244.45;;;-218.75;100.00
50322;BME280;36227;53.366;-1.426;2022-07-29T08:52:11;75259.35;;;-218.75;100.00
50322;BME280;36227;53.366;-1.426;2022-07-29T08:54:39;75332.49;;;-218.26;100.00
50322;BME280;36227;53.366;-1.426;2022-07-29T08:57:07;75355.36;;;-218.26;100.00
50322;BME280;36227;53.366;-1.426;2022-07-29T08:59:35;75310.64;;;-218.97;100.00
50322;BME280;36227;53.366;-1.426;2022-07-29T09:02:04;75350.18;;;-218.75;100.00
50322;BME280;36227;53.366;-1.426;2022-07-29T09:04:34;75250.76;;;-218.75;100.00
50322;BME280;36227;53.366;-1.426;2022-07-29T09:07:04;75239.02;;;-218.75;100.00
50322;BME280;36227;53.366;-1.426;2022-07-29T09:09:32;75252.28;;;-218.75;100.00
50322;BME280;36227;53.366;-1.426;2022-07-29T09:11:59;75373.17;;;-218.48;100.00
50322;BME280;36227;53.366;-1.426;2022-07-29T09:14:27;75344.87;;;-218.97;100.00
50322;BME280;36227;53.366;-1.426;2022-07-29T09:16:55;75309.88;;;-218.97;100.00
50322;BME280;36227;53.366;-1.426;2022-07-29T09:19:28;75303.57;;;-218.75;100.00
50322;BME280;36227;53.366;-1.426;2022-07-29T09:21:57;75301.54;;;-218.75;100.00
50322;BME280;36227;53.366;-1.426;2022-07-29T09:24:27;75230.30;;;-218.75;100.00
50322;BME280;36227;53.366;-1.426;2022-07-29T09:26:54;75254.68;;;-218.75;100.00
50322;BME280;36227;53.366;-1.426;2022-07-29T09:29:23;75332.49;;;-218.75;100.00
50322;BME280;36227;53.366;-1.426;2022-07-29T09:31:51;75364.96;;;-218.97;100.00
50322;BME280;36227;53.366;-1.426;2022-07-29T09:34:24;75385.04;;;-218.48;100.00
50322;BME280;36227;53.366;-1.426;2022-07-29T09:36:53;75281.21;;;-218.48;100.00
50322;BME280;36227;53.366;-1.426;2022-07-29T09:39:30;75319.35;;;-218.26;100.00
50322;BME280;36227;53.366;-1.426;2022-07-29T09:41:58;75227.02;;;-218.75;100.00
50322;BME280;36227;53.366;-1.426;2022-07-29T09:44:26;75210.09;;;-219.24;100.00
50322;BME280;36227;53.366;-1.426;2022-07-29T09:46:55;75143.65;;;-219.24;100.00
50322;BME280;36227;53.366;-1.426;2022-07-29T09:49:23;75137.33;;;-219.24;100.00
50322;BME280;36227;53.366;-1.426;2022-07-29T09:52:04;75190.01;;;-219.24;100.00
50322;BME280;36227;53.366;-1.426;2022-07-29T09:54:32;75113.71;;;-219.24;100.00
50322;BME280;36227;53.366;-1.426;2022-07-29T09:57:00;75141.12;;;-218.75;100.00
50322;BME280;36227;53.366;-1.426;2022-07-29T09:59:27;75131.65;;;-219.68;100.00
50322;BME280;36227;53.366;-1.426;2022-07-29T10:01:54;75080.24;;;-219.24;100.00
50322;BME280;36227;53.366;-1.426;2022-07-29T10:04:22;75040.70;;;-218.97;100.00
50322;BME280;36227;53.366;-1.426;2022-07-29T10:06:57;75106.39;;;-218.97;100.00
50322;BME280;36227;53.366;-1.426;2022-07-29T10:09:24;75048.28;;;-219.24;100.00
50322;BME280;36227;53.366;-1.426;2022-07-29T10:12:09;75145.04;;;-218.75;100.00
50322;BME280;36227;53.366;-1.426;2022-07-29T10:14:37;75060.03;;;-219.24;100.00
50322;BME280;36227;53.366;-1.426;2022-07-29T10:17:06;75029.97;;;-219.24;100.00
50322;BME280;36227;53.366;-1.426;2022-07-29T10:19:36;75065.34;;;-219.24;100.00
50322;BME280;36227;53.366;-1.426;2022-07-29T10:22:05;75056.24;;;-219.46;100.00
50322;BME280;36227;53.366;-1.426;2022-07-29T10:24:34;74963.15;;;-219.24;100.00
50322;BME280;36227;53.366;-1.426;2022-07-29T10:27:04;74967.95;;;-219.95;100.00
50322;BME280;36227;53.366;-1.426;2022-07-29T10:29:31;74978.81;;;-219.68;100.00
50322;BME280;36227;53.366;-1.426;2022-07-29T10:32:11;74883.96;;;-219.68;100.00
50322;BME280;36227;53.366;-1.426;2022-07-29T10:35:06;74885.22;;;-219.46;100.00
50322;BME280;36227;53.366;-1.426;2022-07-29T10:37:50;75002.94;;;-219.24;100.00
50322;BME280;36227;53.366;-1.426;2022-07-29T10:40:32;74989.04;;;-218.97;100.00
50322;BME280;36227;53.366;-1.426;2022-07-29T10:43:16;74952.54;;;-219.68;100.00
50322;BME280;36227;53.366;-1.426;2022-07-29T10:45:45;74895.83;;;-219.68;100.00
50322;BME280;36227;53.366;-1.426;2022-07-29T10:48:13;74991.32;;;-219.24;100.00
50322;BME280;36227;53.366;-1.426;2022-07-29T10:50:59;75006.10;;;-219.24;100.00
50322;BME280;36227;53.366;-1.426;2022-07-29T10:53:48;74981.09;;;-219.68;100.00
50322;BME280;36227;53.366;-1.426;2022-07-29T10:56:24;75033.38;;;-219.46;100.00
50322;BME280;36227;53.366;-1.426;2022-07-29T10:59:26;74988.79;;;-219.46;100.00
50322;BME280;36227;53.366;-1.426;2022-07-29T11:01:53;74906.31;;;-219.68;100.00
50322;BME280;36227;53.366;-1.426;2022-07-29T11:05:25;74928.42;;;-219.68;100.00
50322;BME280;36227;53.366;-1.426;2022-07-29T11:08:25;74847.20;;;-219.46;96.51
50322;BME280;36227;53.366;-1.426;2022-07-29T11:11:31;74827.37;;;-219.95;92.89
50322;BME280;36227;53.366;-1.426;2022-07-29T11:13:58;74784.56;;;-219.68;89.53
50322;BME280;36227;53.366;-1.426;2022-07-29T11:16:25;74875.37;;;-220.39;90.81
50322;BME280;36227;53.366;-1.426;2022-07-29T11:19:26;74839.88;;;-219.95;92.36
50322;BME280;36227;53.366;-1.426;2022-07-29T11:21:52;74857.31;;;-220.17;89.02
50322;BME280;36227;53.366;-1.426;2022-07-29T11:24:21;74762.33;;;-220.17;86.63
50322;BME280;36227;53.366;-1.426;2022-07-29T11:27:10;74835.33;;;-220.17;85.70
50322;BME280;36227;53.366;-1.426;2022-07-29T11:29:40;74834.32;;;-220.17;85.47
50322;BME280;36227;53.366;-1.426;2022-07-29T11:32:17;74906.31;;;-219.68;88.51
50322;BME280;36227;53.366;-1.426;2022-07-29T11:34:44;74982.10;;;-219.68;95.23
50322;BME280;36227;53.366;-1.426;2022-07-29T11:37:22;74993.46;;;-219.95;91.66
50322;BME280;36227;53.366;-1.426;2022-07-29T11:40:23;74810.95;;;-219.95;86.78
50322;BME280;36227;53.366;-1.426;2022-07-29T11:42:50;74801.23;;;-220.17;84.39
50322;BME280;36227;53.366;-1.426;2022-07-29T11:45:20;74709.15;;;-220.88;80.02
50322;BME280;36227;53.366;-1.426;2022-07-29T11:47:51;74884.84;;;-220.17;88.32
50322;BME280;36227;53.366;-1.426;2022-07-29T11:50:30;74842.53;;;-220.17;85.27
50322;BME280;36227;53.366;-1.426;2022-07-29T11:52:59;74780.64;;;-220.17;83.16
50322;BME280;36227;53.366;-1.426;2022-07-29T11:55:26;74796.43;;;-219.95;81.27
50322;BME280;36227;53.366;-1.426;2022-07-29T11:57:56;74804.26;;;-220.39;83.38
50322;BME280;36227;53.366;-1.426;2022-07-29T12:00:27;74813.60;;;-220.17;84.05
50322;BME280;36227;53.366;-1.426;2022-07-29T12:02:56;74873.47;;;-220.17;86.40
50322;BME280;36227;53.366;-1.426;2022-07-29T12:05:33;74961.64;;;-219.68;93.10
50322;BME280;36227;53.366;-1.426;2022-07-29T12:08:11;74798.70;;;-219.95;85.14
50322;BME280;36227;53.366;-1.426;2022-07-29T12:10:39;74846.57;;;-220.39;83.66
50322;BME280;36227;53.366;-1.426;2022-07-29T12:13:07;74801.61;;;-220.17;83.90
50322;BME280;36227;53.366;-1.426;2022-07-29T12:15:34;74689.32;;;-220.39;78.90
50322;BME280;36227;53.366;-1.426;2022-07-29T12:18:19;74725.45;;;-220.39;81.29
50322;BME280;36227;53.366;-1.426;2022-07-29T12:20:47;74676.95;;;-220.17;77.20
50322;BME280;36227;53.366;-1.426;2022-07-29T12:23:15;75100.58;;;-219.68;92.74
50322;BME280;36227;53.366;-1.426;2022-07-29T12:25:43;74875.24;;;-220.39;89.95
50322;BME280;36227;53.366;-1.426;2022-07-29T12:28:13;74799.71;;;-220.17;81.98
50322;BME280;36227;53.366;-1.426;2022-07-29T12:30:43;74745.53;;;-220.17;82.10
50322;BME280;36227;53.366;-1.426;2022-07-29T12:33:14;74651.18;;;-220.17;77.37
50322;BME280;36227;53.366;-1.426;2022-07-29T12:35:43;74745.15;;;-219.95;79.59